Time;durP1;ratioP1;P1;durP2;ratioP2;P2;SDS_P1;SDS_P2;PMS_P1;PMS_P2;Temp;Humidity;BMP_temperature;BMP_pressure;BME280_temperature;BME280_humidity;BME280_pressure;Samples;Min_cycle;Max_cycle;Signal;HPM_P1;HPM_P2
2021/05/31 00:00:57;;;;;;;7.53;3.70;;;9.10;99.90;;;;;;4987319;28;20088;-72
2021/05/31 00:03:23;;;;;;;3.47;3.17;;;9.00;99.90;;;;;;4992225;28;20081;-73
2021/05/31 00:05:49;;;;;;;5.35;2.95;;;9.00;99.90;;;;;;4991867;28;20037;-73
2021/05/31 00:08:14;;;;;;;6.35;3.53;;;8.90;99.90;;;;;;4992718;28;20139;-72
2021/05/31 00:10:40;;;;;;;10.63;3.42;;;8.80;99.90;;;;;;4990545;28;20027;-71
2021/05/31 00:13:06;;;;;;;8.60;4.05;;;8.90;99.90;;;;;;4987586;28;20058;-73
2021/05/31 00:15:32;;;;;;;6.05;3.58;;;8.80;99.90;;;;;;4972836;28;20058;-73
2021/05/31 00:17:58;;;;;;;5.05;3.67;;;8.80;99.90;;;;;;4973239;28;20069;-72
2021/05/31 00:20:24;;;;;;;4.43;3.40;;;8.70;99.90;;;;;;4972088;28;20033;-73
2021/05/31 00:22:50;;;;;;;4.90;3.63;;;8.70;99.90;;;;;;4973081;28;20023;-74
2021/05/31 00:25:16;;;;;;;4.57;3.90;;;8.60;99.90;;;;;;4973096;28;20118;-73
2021/05/31 00:27:42;;;;;;;7.35;4.50;;;8.60;99.90;;;;;;4972794;28;20034;-73
2021/05/31 00:30:09;;;;;;;5.28;4.13;;;8.50;99.90;;;;;;4972342;28;20118;-72
2021/05/31 00:32:36;;;;;;;6.50;3.72;;;8.40;99.90;;;;;;4971164;28;20133;-72
2021/05/31 00:35:03;;;;;;;7.70;4.03;;;8.50;99.90;;;;;;4972470;28;20041;-72
2021/05/31 00:37:29;;;;;;;8.02;4.13;;;8.50;99.90;;;;;;4972869;28;20027;-73
2021/05/31 00:39:54;;;;;;;9.35;4.80;;;8.30;99.90;;;;;;4970522;28;20057;-73
2021/05/31 00:42:20;;;;;;;5.07;3.95;;;8.40;99.90;;;;;;4972767;28;20029;-73
2021/05/31 00:44:45;;;;;;;5.57;4.00;;;8.40;99.90;;;;;;4972706;28;20026;-73
2021/05/31 00:47:11;;;;;;;5.13;3.80;;;8.30;99.90;;;;;;4972766;28;20384;-73
2021/05/31 00:49:38;;;;;;;9.15;4.32;;;8.30;99.90;;;;;;4971918;28;20022;-72
2021/05/31 00:52:08;;;;;;;4.20;3.80;;;8.30;99.90;;;;;;4972379;28;20023;-71
2021/05/31 00:54:34;;;;;;;4.70;3.90;;;8.10;99.90;;;;;;4972909;28;20031;-72
2021/05/31 00:57:01;;;;;;;6.57;4.22;;;8.10;99.90;;;;;;4972613;28;20108;-73
2021/05/31 00:59:27;;;;;;;5.85;4.53;;;8.10;99.90;;;;;;4971884;28;20551;-73
2021/05/31 01:01:53;;;;;;;8.88;5.10;;;8.00;99.90;;;;;;4974093;28;20030;-73
2021/05/31 01:04:19;;;;;;;5.72;5.00;;;8.00;99.90;;;;;;4992838;28;20132;-73
2021/05/31 01:07:21;;;;;;;8.05;5.85;;;7.90;99.90;;;;;;4998577;28;20027;-73
2021/05/31 01:10:13;;;;;;;9.23;5.13;;;7.90;99.90;;;;;;4978734;28;20125;-73
2021/05/31 01:13:00;;;;;;;7.07;5.00;;;7.90;99.90;;;;;;4998987;28;20460;-73
2021/05/31 01:15:31;;;;;;;7.93;5.15;;;7.80;99.90;;;;;;4994413;28;20459;-73
2021/05/31 01:18:03;;;;;;;7.03;4.80;;;7.80;99.90;;;;;;4978937;28;20023;-73
2021/05/31 01:20:35;;;;;;;6.77;5.50;;;7.80;99.90;;;;;;4977948;28;20049;-72
2021/05/31 01:23:08;;;;;;;6.50;5.53;;;7.80;99.90;;;;;;4979082;28;20078;-72
2021/05/31 01:26:00;;;;;;;9.90;6.53;;;7.80;99.90;;;;;;4979033;28;20027;-71
2021/05/31 01:28:45;;;;;;;11.00;6.10;;;7.70;99.90;;;;;;4978902;28;20026;-72
2021/05/31 01:31:13;;;;;;;7.25;5.63;;;7.60;99.90;;;;;;4978328;28;20057;-72
2021/05/31 01:33:39;;;;;;;11.10;5.95;;;7.60;99.90;;;;;;4978992;28;20034;-72
2021/05/31 01:36:06;;;;;;;9.30;6.32;;;7.60;99.90;;;;;;4977297;28;20031;-72
2021/05/31 01:38:36;;;;;;;12.32;6.47;;;7.50;99.90;;;;;;4978875;28;20030;-72
2021/05/31 01:41:02;;;;;;;9.10;6.10;;;7.50;99.90;;;;;;4978360;28;20027;-72
2021/05/31 01:43:29;;;;;;;13.43;6.32;;;7.40;99.90;;;;;;4978709;28;20381;-72
2021/05/31 01:45:55;;;;;;;9.27;6.40;;;7.40;99.90;;;;;;4978418;28;20059;-72
2021/05/31 01:48:21;;;;;;;9.95;7.60;;;7.40;99.90;;;;;;4978594;28;20023;-72
2021/05/31 01:50:49;;;;;;;9.65;6.30;;;7.40;99.90;;;;;;4978190;28;20121;-72
2021/05/31 01:53:15;;;;;;;6.47;5.15;;;7.40;99.90;;;;;;4978606;28;20424;-72
2021/05/31 01:55:41;;;;;;;5.40;4.80;;;7.40;99.90;;;;;;4978493;28;20122;-73
2021/05/31 01:58:09;;;;;;;7.25;5.53;;;7.40;99.90;;;;;;4978592;28;20473;-72
2021/05/31 02:00:35;;;;;;;7.05;5.07;;;7.30;99.90;;;;;;4978193;28;20026;-73
2021/05/31 02:03:02;;;;;;;7.63;5.78;;;7.40;99.90;;;;;;4978737;28;20023;-72
2021/05/31 02:05:28;;;;;;;10.95;5.75;;;7.30;99.90;;;;;;4978384;28;20034;-73
2021/05/31 02:07:55;;;;;;;9.23;6.43;;;7.20;99.90;;;;;;4978414;28;20027;-73
2021/05/31 02:10:21;;;;;;;12.25;6.95;;;7.20;99.90;;;;;;4977621;28;20026;-72
2021/05/31 02:12:58;;;;;;;10.55;7.15;;;7.10;99.90;;;;;;4978495;28;20114;-72
2021/05/31 02:15:55;;;;;;;9.73;6.80;;;7.00;99.90;;;;;;4974018;28;20042;-71
2021/05/31 02:18:44;;;;;;;9.73;6.78;;;7.00;99.90;;;;;;4959027;28;20338;-71
2021/05/31 02:21:14;;;;;;;10.20;6.80;;;7.00;99.90;;;;;;4973541;28;20042;-71
2021/05/31 02:23:41;;;;;;;13.77;7.55;;;6.90;99.90;;;;;;4975008;28;20050;-73
2021/05/31 02:26:12;;;;;;;10.45;6.93;;;6.90;99.90;;;;;;4976106;28;20089;-71
2021/05/31 02:28:38;;;;;;;14.73;7.72;;;6.80;99.90;;;;;;4975389;28;20500;-70
2021/05/31 02:31:04;;;;;;;13.00;7.60;;;6.80;99.90;;;;;;4975014;28;20035;-72
2021/05/31 02:33:29;;;;;;;11.00;7.43;;;6.80;99.90;;;;;;4975141;28;20034;-71
2021/05/31 02:35:55;;;;;;;7.25;6.50;;;6.70;99.90;;;;;;4974861;28;20030;-72
2021/05/31 02:38:20;;;;;;;8.23;6.85;;;6.70;99.90;;;;;;4974997;28;20113;-71
2021/05/31 02:40:46;;;;;;;12.50;7.57;;;6.70;99.90;;;;;;4974281;28;20106;-71
2021/05/31 02:43:12;;;;;;;11.52;7.57;;;6.70;99.90;;;;;;4974775;28;20042;-72
2021/05/31 02:45:39;;;;;;;11.75;7.70;;;6.70;99.90;;;;;;4974884;28;20453;-72
2021/05/31 02:48:06;;;;;;;15.13;8.30;;;6.60;99.90;;;;;;4978557;28;20059;-71
2021/05/31 02:50:32;;;;;;;13.85;7.47;;;6.50;99.90;;;;;;4980674;28;20031;-72
2021/05/31 02:52:58;;;;;;;9.15;7.45;;;6.50;99.90;;;;;;4974603;28;20512;-72
2021/05/31 02:55:27;;;;;;;13.07;6.88;;;6.50;99.90;;;;;;4974565;28;20041;-73
2021/05/31 02:57:53;;;;;;;12.38;7.72;;;6.50;99.90;;;;;;4973919;28;20047;-73
2021/05/31 03:00:22;;;;;;;16.55;7.40;;;6.50;99.90;;;;;;4973696;28;20041;-71
2021/05/31 03:02:49;;;;;;;12.88;8.30;;;6.50;99.90;;;;;;4974584;28;20029;-71
2021/05/31 03:05:18;;;;;;;9.88;7.07;;;6.30;99.90;;;;;;4974579;28;20030;-72
2021/05/31 03:07:44;;;;;;;10.38;6.80;;;6.20;99.90;;;;;;4974587;28;20034;-72
2021/05/31 03:10:11;;;;;;;12.20;7.47;;;6.20;99.90;;;;;;4973802;28;20481;-72
2021/05/31 03:12:37;;;;;;;10.63;7.13;;;6.30;99.90;;;;;;4974153;28;20101;-71
2021/05/31 03:15:05;;;;;;;16.27;6.85;;;6.30;99.90;;;;;;4974475;28;20549;-73
2021/05/31 03:17:31;;;;;;;10.52;7.70;;;6.20;99.90;;;;;;4974684;28;20034;-73
2021/05/31 03:19:57;;;;;;;11.73;6.70;;;6.20;99.90;;;;;;4973924;28;20027;-73
2021/05/31 03:22:22;;;;;;;9.02;7.43;;;6.20;99.90;;;;;;4974866;28;20113;-73
2021/05/31 03:24:48;;;;;;;8.60;6.90;;;6.20;99.90;;;;;;4973195;28;20026;-73
2021/05/31 03:27:14;;;;;;;11.88;6.68;;;6.10;99.90;;;;;;4972874;28;20195;-72
2021/05/31 03:29:40;;;;;;;11.35;7.20;;;6.10;99.90;;;;;;4973252;28;20043;-72
2021/05/31 03:32:06;;;;;;;11.23;7.43;;;6.10;99.90;;;;;;4974091;28;20089;-73
2021/05/31 03:34:32;;;;;;;12.20;7.82;;;6.10;99.90;;;;;;4973993;28;20034;-73
2021/05/31 03:36:57;;;;;;;13.82;7.22;;;6.10;99.90;;;;;;4973641;28;20023;-71
2021/05/31 03:39:23;;;;;;;11.75;7.88;;;6.10;99.90;;;;;;4973180;28;20418;-71
2021/05/31 03:41:48;;;;;;;11.57;7.20;;;6.10;99.90;;;;;;4973584;28;20101;-72
2021/05/31 03:44:14;;;;;;;18.50;8.05;;;6.10;99.90;;;;;;4973812;28;20023;-73
2021/05/31 03:46:40;;;;;;;10.00;8.20;;;6.10;99.90;;;;;;4973795;28;20037;-72
2021/05/31 03:49:05;;;;;;;13.63;8.40;;;6.10;99.90;;;;;;4972329;28;20142;-73
2021/05/31 03:51:31;;;;;;;10.27;7.43;;;6.10;99.90;;;;;;4972940;28;20055;-73
2021/05/31 03:53:57;;;;;;;11.73;7.53;;;6.00;99.90;;;;;;4973425;28;20027;-71
2021/05/31 03:56:23;;;;;;;10.10;6.90;;;6.10;99.90;;;;;;4973248;28;20110;-71
2021/05/31 03:58:49;;;;;;;11.20;7.40;;;6.20;99.90;;;;;;4973090;28;20402;-73
2021/05/31 04:01:16;;;;;;;9.65;6.70;;;6.10;99.90;;;;;;4972751;28;20078;-73
2021/05/31 04:03:42;;;;;;;9.48;7.22;;;6.10;99.90;;;;;;4973595;28;20026;-73
2021/05/31 04:11:36;;;;;;;10.77;7.30;;;6.10;99.90;;;;;;4972758;28;20496;-72
2021/05/31 04:14:09;;;;;;;9.32;6.70;;;6.10;99.90;;;;;;4973073;28;20022;-72
2021/05/31 04:16:37;;;;;;;15.38;7.57;;;6.20;99.90;;;;;;4973243;28;20515;-72
2021/05/31 04:19:05;;;;;;;14.23;7.05;;;6.20;99.90;;;;;;4973004;28;20422;-72
2021/05/31 04:21:31;;;;;;;9.27;6.55;;;6.20;99.90;;;;;;4967860;28;20098;-72
2021/05/31 04:23:57;;;;;;;8.98;7.05;;;6.20;99.90;;;;;;4972939;28;20031;-72
2021/05/31 04:26:23;;;;;;;11.27;7.10;;;6.20;99.90;;;;;;4973470;28;20038;-72
2021/05/31 04:28:49;;;;;;;9.63;6.82;;;6.20;99.90;;;;;;4991306;28;20026;-72
2021/05/31 04:31:15;;;;;;;15.55;7.72;;;6.30;99.90;;;;;;4991170;28;20464;-72
2021/05/31 04:33:41;;;;;;;11.65;7.50;;;6.40;99.90;;;;;;4982275;28;20483;-72
2021/05/31 04:36:07;;;;;;;12.00;6.43;;;6.40;99.90;;;;;;4972442;28;20030;-70
2021/05/31 04:38:32;;;;;;;14.70;7.50;;;6.40;99.90;;;;;;4972734;28;20023;-70
2021/05/31 04:40:58;;;;;;;9.55;7.15;;;6.40;99.90;;;;;;4991394;28;20374;-71
2021/05/31 04:43:24;;;;;;;9.02;7.15;;;6.40;99.90;;;;;;4991416;28;20563;-72
2021/05/31 04:45:49;;;;;;;11.63;6.85;;;6.50;99.90;;;;;;4991893;28;20396;-73
2021/05/31 04:48:15;;;;;;;10.55;6.65;;;6.50;99.90;;;;;;4991631;28;20049;-71
2021/05/31 04:50:41;;;;;;;10.73;7.43;;;6.50;99.90;;;;;;4986707;28;20034;-71
2021/05/31 04:53:07;;;;;;;12.05;7.35;;;6.50;99.90;;;;;;4971739;28;20469;-71
2021/05/31 04:55:34;;;;;;;15.27;7.28;;;6.50;99.90;;;;;;4972307;28;20026;-71
2021/05/31 04:58:01;;;;;;;12.88;6.97;;;6.60;99.90;;;;;;4972271;28;20398;-71
2021/05/31 05:00:27;;;;;;;13.68;7.15;;;6.60;99.90;;;;;;4971681;28;20649;-71
2021/05/31 05:02:52;;;;;;;10.45;7.05;;;6.70;99.90;;;;;;4971815;28;20118;-71
2021/05/31 05:05:18;;;;;;;12.68;7.80;;;6.70;99.90;;;;;;4973392;28;20385;-71
2021/05/31 05:07:47;;;;;;;9.57;7.25;;;6.80;99.90;;;;;;4976044;28;20359;-72
2021/05/31 05:10:18;;;;;;;9.70;7.25;;;6.90;99.90;;;;;;4971391;28;20023;-72
2021/05/31 05:12:45;;;;;;;10.23;7.53;;;6.90;99.90;;;;;;4972252;28;20098;-72
2021/05/31 05:15:12;;;;;;;11.27;7.10;;;7.00;99.90;;;;;;4972651;28;20033;-72
2021/05/31 05:17:37;;;;;;;11.93;7.63;;;7.10;99.90;;;;;;4991105;28;20062;-71
2021/05/31 05:20:05;;;;;;;11.43;7.68;;;7.10;99.90;;;;;;4990566;28;20108;-73
2021/05/31 05:22:30;;;;;;;10.48;7.78;;;7.20;99.90;;;;;;4972903;28;20035;-72
2021/05/31 05:24:57;;;;;;;9.30;7.15;;;7.30;99.90;;;;;;4971771;28;20142;-71
2021/05/31 05:27:23;;;;;;;11.60;7.97;;;7.30;99.90;;;;;;4972025;28;20031;-71
2021/05/31 05:29:48;;;;;;;14.15;8.85;;;7.40;99.90;;;;;;4970967;28;20033;-71
2021/05/31 05:32:14;;;;;;;11.07;8.13;;;7.40;99.90;;;;;;4970656;28;20066;-71
2021/05/31 05:34:39;;;;;;;13.80;7.82;;;7.50;99.90;;;;;;4971547;28;20066;-72
2021/05/31 05:38:01;;;;;;;12.63;8.02;;;7.50;99.90;;;;;;4978553;28;20034;-71
2021/05/31 05:45:26;;;;;;;9.60;7.20;;;7.70;99.90;;;;;;4997247;28;20046;-70
2021/05/31 05:47:52;;;;;;;14.40;7.35;;;7.80;99.90;;;;;;4998895;28;20033;-72
2021/05/31 05:50:20;;;;;;;12.13;7.38;;;8.00;99.90;;;;;;4993653;28;20054;-72
2021/05/31 05:52:46;;;;;;;9.88;7.93;;;8.00;99.90;;;;;;4981644;28;20089;-71
2021/05/31 05:55:13;;;;;;;9.52;6.90;;;8.10;99.90;;;;;;4987871;28;20393;-71
2021/05/31 05:57:40;;;;;;;13.18;7.38;;;8.20;99.90;;;;;;4989592;28;20393;-71
2021/05/31 06:00:12;;;;;;;11.50;7.00;;;8.30;99.90;;;;;;5047599;23;20453;-73
2021/05/31 06:02:39;;;;;;;10.65;7.15;;;8.40;99.90;;;;;;4997888;28;20052;-75
2021/05/31 06:05:05;;;;;;;9.85;6.32;;;8.40;99.90;;;;;;5015435;28;20045;-73
2021/05/31 06:07:31;;;;;;;7.78;6.47;;;8.60;99.90;;;;;;4998172;28;20412;-75
2021/05/31 06:09:56;;;;;;;8.82;6.55;;;8.80;99.90;;;;;;5014971;28;20049;-74
2021/05/31 06:12:22;;;;;;;7.47;6.63;;;9.00;99.90;;;;;;5015207;28;20034;-74
2021/05/31 06:14:48;;;;;;;11.55;6.30;;;9.10;99.90;;;;;;5013941;28;20041;-73
2021/05/31 06:17:14;;;;;;;10.13;5.80;;;9.20;99.90;;;;;;4977845;28;20056;-74
2021/05/31 06:19:39;;;;;;;7.70;5.53;;;9.30;99.90;;;;;;4995356;28;20110;-75
2021/05/31 06:22:05;;;;;;;9.05;5.35;;;9.50;99.90;;;;;;4995937;28;20062;-73
2021/05/31 06:24:31;;;;;;;8.15;4.97;;;9.60;99.90;;;;;;4997235;28;20030;-72
2021/05/31 06:26:57;;;;;;;9.07;5.93;;;9.80;99.90;;;;;;4997371;28;20088;-75
2021/05/31 06:29:23;;;;;;;5.95;5.35;;;9.90;99.90;;;;;;4996512;28;20469;-72
2021/05/31 06:31:48;;;;;;;7.78;5.25;;;10.10;99.90;;;;;;4980838;28;20408;-72
2021/05/31 06:34:14;;;;;;;7.75;5.38;;;10.20;99.90;;;;;;4997290;28;20161;-74
2021/05/31 06:36:41;;;;;;;8.98;5.65;;;10.30;99.90;;;;;;4979456;28;20026;-74
2021/05/31 06:39:11;;;;;;;8.07;4.65;;;10.50;99.90;;;;;;4997092;28;20491;-72
2021/05/31 06:41:37;;;;;;;5.85;4.90;;;10.70;99.90;;;;;;4996518;28;20026;-74
2021/05/31 06:44:07;;;;;;;6.22;4.43;;;10.80;99.90;;;;;;4996639;28;20034;-72
2021/05/31 06:46:33;;;;;;;7.40;4.13;;;11.00;99.90;;;;;;4997562;28;20038;-72
2021/05/31 06:48:59;;;;;;;6.18;4.57;;;11.10;99.90;;;;;;4996856;28;20037;-74
2021/05/31 06:51:24;;;;;;;8.05;4.80;;;11.40;99.90;;;;;;5012816;28;20026;-73
2021/05/31 06:53:50;;;;;;;6.85;4.32;;;11.60;99.90;;;;;;5014381;28;20088;-72
2021/05/31 06:56:16;;;;;;;9.75;4.20;;;11.80;99.90;;;;;;5013853;28;20054;-72
2021/05/31 06:58:43;;;;;;;9.40;4.30;;;12.10;99.90;;;;;;4995980;28;20494;-72
2021/05/31 07:01:10;;;;;;;5.50;3.80;;;12.30;99.90;;;;;;5013229;28;20022;-75
2021/05/31 07:03:37;;;;;;;8.88;4.18;;;12.60;99.90;;;;;;5007354;28;20031;-74
2021/05/31 07:06:06;;;;;;;8.57;3.25;;;12.70;99.90;;;;;;4997522;28;20022;-73
2021/05/31 07:08:32;;;;;;;7.10;4.20;;;12.80;99.90;;;;;;4995878;28;20027;-73
2021/05/31 07:11:01;;;;;;;11.95;4.15;;;13.10;99.90;;;;;;4995030;28;20038;-72
2021/05/31 07:13:28;;;;;;;10.48;3.92;;;13.30;99.90;;;;;;4994973;28;20109;-72
2021/05/31 07:15:55;;;;;;;9.10;3.55;;;13.50;99.90;;;;;;4978777;28;20058;-72
2021/05/31 07:18:20;;;;;;;7.50;3.42;;;13.70;99.90;;;;;;5004132;28;20827;-74
2021/05/31 07:20:48;;;;;;;6.20;3.35;;;13.90;99.90;;;;;;5002675;28;20065;-74
2021/05/31 07:23:17;;;;;;;3.55;2.97;;;14.10;99.90;;;;;;5001590;28;20030;-72
2021/05/31 07:25:43;;;;;;;3.53;3.08;;;14.20;99.90;;;;;;5004569;28;20026;-75
2021/05/31 07:28:09;;;;;;;4.63;3.03;;;14.40;99.90;;;;;;4987189;28;20476;-73
2021/05/31 07:30:35;;;;;;;3.13;2.83;;;14.60;99.90;;;;;;5000905;28;20042;-73
2021/05/31 07:33:02;;;;;;;4.72;3.15;;;14.70;99.90;;;;;;5003423;28;20073;-73
2021/05/31 07:35:28;;;;;;;5.65;2.85;;;14.80;99.90;;;;;;5021708;28;20033;-74
2021/05/31 07:37:54;;;;;;;5.38;3.13;;;15.00;99.90;;;;;;5021001;28;20017;-74
2021/05/31 07:40:20;;;;;;;3.65;2.70;;;15.20;99.90;;;;;;5023741;28;20022;-72
2021/05/31 07:42:46;;;;;;;3.22;2.65;;;15.40;99.90;;;;;;5024794;28;20022;-77
2021/05/31 07:45:15;;;;;;;3.33;2.75;;;15.40;99.90;;;;;;5006758;28;20118;-73
2021/05/31 07:47:40;;;;;;;2.70;2.42;;;15.60;99.90;;;;;;5023838;28;20026;-74
2021/05/31 07:50:08;;;;;;;2.55;2.08;;;15.80;99.90;;;;;;5023619;28;20495;-75
2021/05/31 07:52:33;;;;;;;5.97;2.33;;;16.00;99.90;;;;;;5022172;28;20033;-75
2021/05/31 07:54:59;;;;;;;5.30;2.10;;;16.20;99.30;;;;;;5004705;28;20045;-72
2021/05/31 07:57:26;;;;;;;4.88;2.70;;;16.40;99.90;;;;;;5025060;28;20025;-75
2021/05/31 07:59:53;;;;;;;2.47;2.28;;;16.40;98.50;;;;;;5011295;28;20031;-72
2021/05/31 08:02:19;;;;;;;5.95;2.08;;;16.60;99.50;;;;;;5004852;28;20030;-72
2021/05/31 08:04:45;;;;;;;2.90;2.45;;;16.60;98.40;;;;;;5002142;28;20034;-73
2021/05/31 08:07:12;;;;;;;2.65;2.45;;;16.80;99.90;;;;;;4997502;28;20030;-74
2021/05/31 08:09:39;;;;;;;4.10;2.63;;;17.40;98.20;;;;;;4998247;28;20053;-72
2021/05/31 08:12:06;;;;;;;4.78;2.10;;;17.70;99.90;;;;;;4997063;28;20030;-74
2021/05/31 08:14:31;;;;;;;2.30;1.77;;;18.00;98.40;;;;;;4999413;28;20110;-74
2021/05/31 08:16:58;;;;;;;5.22;2.20;;;18.20;98.00;;;;;;4976979;28;20065;-73
2021/05/31 08:19:26;;;;;;;2.03;1.83;;;18.20;95.60;;;;;;4986510;28;20026;-74
2021/05/31 08:21:52;;;;;;;3.58;1.98;;;18.30;95.90;;;;;;4999321;28;20022;-76
2021/05/31 08:24:19;;;;;;;2.17;1.63;;;18.70;95.10;;;;;;5008494;28;20030;-75
2021/05/31 08:26:45;;;;;;;4.78;1.75;;;18.90;94.10;;;;;;5000103;28;20025;-74
2021/05/31 08:29:12;;;;;;;1.98;1.85;;;19.00;91.70;;;;;;5022174;28;20037;-74
2021/05/31 08:31:38;;;;;;;4.40;1.45;;;18.80;87.70;;;;;;5012906;28;20048;-75
2021/05/31 08:34:04;;;;;;;1.83;1.50;;;18.40;89.80;;;;;;4995846;28;20022;-76
2021/05/31 08:36:30;;;;;;;3.85;1.85;;;18.40;88.40;;;;;;4998145;28;20026;-74
2021/05/31 08:38:58;;;;;;;2.78;1.80;;;18.50;88.50;;;;;;4980059;28;20019;-73
2021/05/31 08:41:27;;;;;;;1.23;1.23;;;18.90;86.20;;;;;;4992689;28;20029;-75
2021/05/31 08:43:54;;;;;;;1.38;1.27;;;19.10;84.40;;;;;;4992977;28;20113;-74
2021/05/31 08:46:20;;;;;;;9.35;1.83;;;19.30;81.70;;;;;;4992680;28;20026;-77
2021/05/31 08:48:46;;;;;;;4.40;1.45;;;18.80;83.40;;;;;;4992749;28;20505;-74
2021/05/31 08:51:12;;;;;;;3.22;1.42;;;18.80;81.80;;;;;;4974060;28;20026;-73
2021/05/31 08:53:41;;;;;;;1.42;1.30;;;19.40;83.00;;;;;;4992587;28;20184;-73
2021/05/31 08:56:07;;;;;;;1.55;1.45;;;20.00;79.50;;;;;;4993926;28;20472;-73
2021/05/31 08:58:32;;;;;;;1.83;1.17;;;19.80;78.20;;;;;;4999629;28;20084;-75
2021/05/31 09:00:58;;;;;;;1.83;1.35;;;20.20;75.30;;;;;;5000032;28;20025;-73
2021/05/31 09:03:24;;;;;;;3.58;1.42;;;20.60;72.80;;;;;;4999923;28;20026;-73
2021/05/31 09:05:51;;;;;;;2.83;1.50;;;21.30;71.80;;;;;;5000021;28;20086;-73
2021/05/31 09:08:19;;;;;;;2.55;1.30;;;21.90;63.30;;;;;;4997722;28;20035;-72
2021/05/31 09:10:59;;;;;;;3.25;1.30;;;22.10;65.30;;;;;;4998287;28;20465;-72
2021/05/31 09:13:34;;;;;;;5.35;1.30;;;22.00;64.60;;;;;;4999498;28;20039;-75
2021/05/31 09:16:17;;;;;;;6.07;1.38;;;21.70;65.10;;;;;;4998225;28;20081;-72
2021/05/31 09:18:52;;;;;;;2.50;1.58;;;21.10;65.60;;;;;;5010111;28;20041;-73
2021/05/31 09:21:31;;;;;;;6.05;1.30;;;20.50;66.00;;;;;;4991361;28;20559;-74
2021/05/31 09:24:08;;;;;;;6.25;1.50;;;20.80;64.70;;;;;;5000703;28;20053;-74
2021/05/31 09:26:51;;;;;;;1.20;1.08;;;21.20;64.80;;;;;;4983330;28;20050;-72
2021/05/31 09:29:18;;;;;;;2.50;1.30;;;22.30;63.10;;;;;;4999037;28;20022;-70
2021/05/31 09:31:44;;;;;;;2.50;1.50;;;23.20;60.70;;;;;;5002068;28;20030;-73
2021/05/31 09:34:12;;;;;;;3.10;1.60;;;23.70;57.90;;;;;;5002461;28;20030;-72
2021/05/31 09:36:48;;;;;;;2.25;1.30;;;23.70;58.40;;;;;;4983329;28;20062;-70
2021/05/31 09:39:14;;;;;;;1.45;1.35;;;22.40;58.50;;;;;;4998911;28;20090;-71
2021/05/31 09:41:40;;;;;;;1.50;1.40;;;21.30;63.10;;;;;;4980906;28;20050;-71
2021/05/31 09:44:07;;;;;;;1.90;1.50;;;22.10;64.80;;;;;;5001328;28;20105;-72
2021/05/31 09:46:47;;;;;;;4.18;1.77;;;22.80;59.80;;;;;;4999187;28;20027;-69
2021/05/31 09:49:23;;;;;;;1.52;1.40;;;22.10;59.60;;;;;;4984274;28;20030;-73
2021/05/31 09:51:58;;;;;;;2.10;1.40;;;22.00;61.00;;;;;;5005554;28;20022;-74
2021/05/31 09:54:44;;;;;;;3.88;1.50;;;23.00;62.60;;;;;;5015752;28;20017;-74
2021/05/31 09:57:28;;;;;;;8.02;1.88;;;23.40;59.60;;;;;;5001452;28;20030;-74
2021/05/31 09:59:59;;;;;;;3.42;1.90;;;23.10;58.30;;;;;;4979578;28;20030;-71
2021/05/31 10:10:23;;;;;;;5.45;1.70;;;23.70;54.80;;;;;;4994139;28;20034;-72
2021/05/31 10:12:50;;;;;;;4.82;2.00;;;22.90;56.80;;;;;;5011865;28;20055;-72
2021/05/31 10:15:18;;;;;;;3.72;1.60;;;22.20;58.80;;;;;;5014114;28;20098;-71
2021/05/31 10:17:46;;;;;;;2.63;1.60;;;21.90;61.00;;;;;;5014781;28;20076;-71
2021/05/31 10:20:12;;;;;;;1.73;1.63;;;21.80;59.30;;;;;;5014239;28;20018;-71
2021/05/31 10:22:38;;;;;;;2.28;1.67;;;21.60;59.30;;;;;;5017575;28;20026;-72
2021/05/31 10:25:07;;;;;;;2.47;2.17;;;21.50;59.70;;;;;;5014897;28;20019;-73
2021/05/31 10:27:36;;;;;;;3.13;2.10;;;21.60;59.30;;;;;;5011410;28;20023;-73
2021/05/31 10:30:06;;;;;;;2.20;1.73;;;21.70;57.80;;;;;;4995811;28;20045;-73
2021/05/31 10:32:32;;;;;;;2.63;1.85;;;21.50;59.40;;;;;;5012693;28;20026;-74
2021/05/31 10:35:01;;;;;;;5.00;1.65;;;21.70;60.30;;;;;;5003412;28;20031;-73
2021/05/31 10:37:29;;;;;;;2.60;1.77;;;22.20;58.10;;;;;;5010783;28;20036;-73
2021/05/31 10:39:59;;;;;;;3.75;2.40;;;22.60;56.70;;;;;;4999809;28;20026;-73
2021/05/31 10:42:25;;;;;;;1.67;1.58;;;22.40;57.50;;;;;;4986709;28;20015;-72
2021/05/31 10:44:51;;;;;;;2.05;1.58;;;22.10;58.80;;;;;;4989133;28;20031;-73
2021/05/31 10:47:26;;;;;;;3.08;1.60;;;22.50;58.90;;;;;;4996168;28;20374;-73
2021/05/31 10:49:56;;;;;;;2.58;1.73;;;22.60;58.60;;;;;;4999124;28;20038;-72
2021/05/31 10:52:22;;;;;;;3.28;1.70;;;22.80;55.50;;;;;;5001447;28;20397;-72
2021/05/31 10:54:48;;;;;;;3.67;1.65;;;23.20;57.40;;;;;;5000375;28;20034;-72
2021/05/31 10:57:14;;;;;;;2.08;1.70;;;23.30;54.50;;;;;;5001080;28;20109;-74
2021/05/31 10:59:48;;;;;;;2.30;2.10;;;23.20;55.10;;;;;;5001566;28;20030;-73
2021/05/31 11:02:22;;;;;;;3.63;1.83;;;23.00;59.30;;;;;;5002347;28;20026;-73
2021/05/31 11:04:48;;;;;;;2.03;1.88;;;23.70;55.60;;;;;;5004811;28;20389;-77
2021/05/31 11:07:25;;;;;;;3.78;1.67;;;23.80;54.00;;;;;;5004967;28;20022;-73
2021/05/31 11:09:53;;;;;;;2.78;1.50;;;23.70;55.20;;;;;;5005548;28;20086;-73
2021/05/31 11:12:28;;;;;;;1.80;1.70;;;24.00;55.50;;;;;;5000166;28;20030;-71
2021/05/31 11:15:10;;;;;;;1.75;1.63;;;24.30;54.40;;;;;;4997216;28;20477;-77
2021/05/31 11:18:02;;;;;;;1.58;1.48;;;23.90;53.70;;;;;;4987053;28;20041;-75
2021/05/31 11:20:29;;;;;;;2.72;1.80;;;23.60;53.90;;;;;;4995289;28;20038;-75
2021/05/31 11:23:01;;;;;;;6.07;1.77;;;23.20;55.20;;;;;;5003205;28;20022;-75
2021/05/31 11:25:29;;;;;;;4.30;1.77;;;22.90;56.00;;;;;;5004315;28;20674;-75
2021/05/31 11:28:05;;;;;;;3.58;2.17;;;23.40;57.90;;;;;;4986863;28;20034;-74
2021/05/31 11:30:34;;;;;;;1.70;1.58;;;23.70;56.00;;;;;;4986998;28;20026;-76
2021/05/31 11:33:03;;;;;;;2.42;1.60;;;24.50;53.60;;;;;;4986978;28;20554;-75
2021/05/31 11:35:30;;;;;;;3.67;1.73;;;24.00;54.40;;;;;;4985757;28;20060;-74
2021/05/31 11:37:57;;;;;;;2.80;1.50;;;24.20;53.00;;;;;;4983692;28;20019;-74
2021/05/31 11:40:30;;;;;;;2.20;1.70;;;24.70;52.70;;;;;;5000992;28;20022;-75
2021/05/31 11:43:01;;;;;;;10.70;3.53;;;23.90;53.90;;;;;;5001550;28;20049;-72
2021/05/31 11:45:33;;;;;;;6.10;1.65;;;24.80;58.10;;;;;;4985189;28;20023;-75
2021/05/31 11:48:13;;;;;;;3.50;1.60;;;26.00;51.10;;;;;;4992424;28;20396;-74
2021/05/31 11:50:40;;;;;;;3.13;1.70;;;25.50;51.20;;;;;;5020374;28;20632;-74
2021/05/31 11:53:14;;;;;;;5.05;1.70;;;25.50;50.30;;;;;;5019600;28;20037;-73
2021/05/31 11:55:40;;;;;;;3.15;1.55;;;25.70;52.40;;;;;;5001799;28;20029;-76
2021/05/31 11:58:07;;;;;;;1.70;1.60;;;26.20;53.20;;;;;;4993134;28;20504;-75
2021/05/31 12:00:40;;;;;;;2.50;1.52;;;27.30;48.30;;;;;;5000769;23;20027;-74
2021/05/31 12:03:17;;;;;;;3.90;1.65;;;27.80;50.60;;;;;;4989294;28;20088;-73
2021/05/31 12:05:43;;;;;;;1.58;1.40;;;27.70;46.90;;;;;;4992202;28;20576;-72
2021/05/31 12:08:14;;;;;;;2.25;1.38;;;28.80;50.00;;;;;;4992176;28;20138;-72
2021/05/31 12:10:41;;;;;;;1.48;1.38;;;28.50;47.10;;;;;;4990003;28;20572;-73
2021/05/31 12:13:08;;;;;;;1.50;1.40;;;28.10;47.70;;;;;;4991699;28;20022;-74
2021/05/31 12:15:35;;;;;;;2.15;1.48;;;27.00;47.30;;;;;;4991968;28;20109;-73
2021/05/31 12:18:11;;;;;;;2.45;1.35;;;27.10;49.20;;;;;;4991615;28;20046;-74
2021/05/31 12:20:37;;;;;;;5.00;1.40;;;28.00;45.80;;;;;;4990618;28;20030;-74
2021/05/31 12:23:02;;;;;;;4.00;1.17;;;28.00;47.60;;;;;;4990661;28;20455;-74
2021/05/31 12:25:32;;;;;;;2.97;1.50;;;27.70;46.70;;;;;;4980338;28;20023;-74
2021/05/31 12:28:04;;;;;;;5.53;1.42;;;28.70;48.30;;;;;;4972912;28;20509;-75
2021/05/31 12:30:29;;;;;;;2.72;1.30;;;30.40;44.30;;;;;;4971158;28;20073;-74
2021/05/31 12:32:55;;;;;;;6.15;1.65;;;31.40;43.50;;;;;;4969005;28;20182;-73
2021/05/31 12:35:21;;;;;;;4.30;1.55;;;31.90;44.00;;;;;;4971261;28;20031;-73
2021/05/31 12:37:52;;;;;;;5.03;1.10;;;30.20;44.20;;;;;;4972071;28;20473;-73
2021/05/31 12:40:20;;;;;;;1.30;1.20;;;31.10;43.10;;;;;;4971494;28;20026;-73
2021/05/31 12:42:49;;;;;;;1.42;1.33;;;30.50;41.80;;;;;;4971746;28;20066;-73
2021/05/31 12:45:18;;;;;;;2.47;1.33;;;31.10;40.90;;;;;;4971524;28;20046;-71
2021/05/31 12:47:49;;;;;;;1.17;1.10;;;30.00;41.80;;;;;;4975054;28;20022;-73
2021/05/31 12:50:49;;;;;;;1.48;1.30;;;29.90;42.50;;;;;;4989594;28;20512;-73
2021/05/31 12:53:15;;;;;;;1.52;1.35;;;30.00;40.80;;;;;;4960846;28;20090;-72
2021/05/31 12:55:42;;;;;;;1.50;1.40;;;30.40;42.20;;;;;;4972026;28;20031;-73
2021/05/31 12:58:22;;;;;;;1.90;1.38;;;30.10;40.90;;;;;;4972047;28;20586;-73
2021/05/31 13:00:50;;;;;;;2.20;1.30;;;29.90;41.00;;;;;;4971503;28;20089;-73
2021/05/31 13:03:17;;;;;;;1.25;1.17;;;29.40;42.60;;;;;;4972510;28;20505;-75
2021/05/31 13:05:47;;;;;;;1.50;1.40;;;29.80;43.80;;;;;;4972397;28;20034;-74
2021/05/31 13:08:13;;;;;;;2.22;1.33;;;31.20;41.10;;;;;;4986135;28;20026;-72
2021/05/31 13:10:55;;;;;;;1.55;1.30;;;30.30;40.90;;;;;;4990642;28;20421;-73
2021/05/31 13:13:35;;;;;;;4.72;1.38;;;28.90;42.50;;;;;;4991094;28;20026;-73
2021/05/31 13:16:04;;;;;;;3.10;1.20;;;29.40;43.10;;;;;;4991350;28;20034;-74